createdAt,value
2022-09-11T00:00:02.590Z,85.77
2022-09-11T00:05:03.823Z,85.80
2022-09-11T00:10:05.085Z,86.28
2022-09-11T00:15:07.452Z,86.39
2022-09-11T00:20:08.736Z,86.56
2022-09-11T00:25:10.052Z,87.31
2022-09-11T00:30:11.291Z,88.04
2022-09-11T00:35:12.901Z,87.33
2022-09-11T00:40:15.480Z,86.11
2022-09-11T00:45:17.846Z,85.60
2022-09-11T00:50:19.997Z,85.85
2022-09-11T00:55:21.238Z,85.88
2022-09-11T01:00:23.088Z,85.95
2022-09-11T01:05:24.611Z,86.60
2022-09-11T01:10:25.934Z,86.11
2022-09-11T01:15:27.162Z,85.57
2022-09-11T01:20:28.438Z,85.49
2022-09-11T01:25:29.662Z,86.39
2022-09-11T01:30:30.902Z,86.90
2022-09-11T01:35:32.196Z,86.08
2022-09-11T01:40:35.114Z,86.66
2022-09-11T01:45:37.303Z,86.94
2022-09-11T01:50:38.695Z,86.82
2022-09-11T01:55:39.948Z,86.34
2022-09-11T02:00:41.204Z,86.94
2022-09-11T02:05:43.930Z,86.18
2022-09-11T02:10:45.375Z,86.00
2022-09-11T02:15:46.631Z,87.21
2022-09-11T02:20:47.863Z,85.94
2022-09-11T02:25:49.217Z,84.95
2022-09-11T02:30:50.576Z,84.67
2022-09-11T02:35:52.154Z,84.58
2022-09-11T02:40:53.746Z,85.31
2022-09-11T02:45:55.130Z,84.50
2022-09-11T02:50:56.861Z,84.84
2022-09-11T02:55:58.292Z,85.13
2022-09-11T03:00:59.711Z,85.52
2022-09-11T03:06:00.974Z,85.27
2022-09-11T03:11:02.283Z,86.33
2022-09-11T03:16:04.849Z,87.10
2022-09-11T03:21:06.129Z,86.66
2022-09-11T03:26:07.510Z,86.21
2022-09-11T03:31:09.574Z,86.22
2022-09-11T03:36:10.850Z,86.76
2022-09-11T03:41:12.107Z,88.12
2022-09-11T03:46:13.481Z,87.33
2022-09-11T03:51:17.807Z,87.64
2022-09-11T03:56:19.067Z,87.03
2022-09-11T04:01:20.307Z,87.10
2022-09-11T04:06:21.662Z,86.95
2022-09-11T04:11:22.893Z,86.86
2022-09-11T04:16:24.141Z,87.08
2022-09-11T04:21:25.438Z,87.14
2022-09-11T04:26:26.708Z,87.36
2022-09-11T04:31:28.057Z,88.28
2022-09-11T04:36:30.048Z,89.43
2022-09-11T04:41:31.354Z,89.70
2022-09-11T04:46:33.364Z,90.58
2022-09-11T04:51:34.816Z,91.71
2022-09-11T04:56:37.887Z,91.59
2022-09-11T05:01:39.700Z,92.22
2022-09-11T05:06:40.998Z,92.90
2022-09-11T05:11:42.313Z,93.96
2022-09-11T05:16:45.138Z,94.26
2022-09-11T05:21:46.389Z,93.87
2022-09-11T05:26:47.643Z,92.54
2022-09-11T05:31:49.666Z,91.84
2022-09-11T05:36:52.082Z,91.69
2022-09-11T05:41:53.327Z,91.43
2022-09-11T05:46:55.128Z,93.20
2022-09-11T05:51:56.392Z,93.04
2022-09-11T05:56:57.665Z,92.86
2022-09-11T06:01:58.926Z,93.19
2022-09-11T06:07:00.182Z,92.94
2022-09-11T06:12:01.789Z,91.53
2022-09-11T06:17:03.031Z,90.77
2022-09-11T06:22:04.351Z,88.77
2022-09-11T06:27:05.652Z,89.30
2022-09-11T06:32:06.875Z,90.81
2022-09-11T06:37:08.133Z,90.11
2022-09-11T06:42:10.717Z,91.31
2022-09-11T06:47:13.452Z,92.53
2022-09-11T06:52:14.801Z,92.38
2022-09-11T06:57:16.160Z,93.63
2022-09-11T07:02:17.474Z,94.93
2022-09-11T07:07:18.764Z,95.36
2022-09-11T07:12:22.783Z,95.37
2022-09-11T07:17:24.009Z,93.95
2022-09-11T07:22:25.292Z,94.67
2022-09-11T07:27:26.535Z,94.56
2022-09-11T07:32:27.766Z,92.33
2022-09-11T07:37:28.992Z,91.60
2022-09-11T07:42:30.283Z,89.48
2022-09-11T07:47:33.922Z,88.55
2022-09-11T07:52:36.679Z,87.57
2022-09-11T07:57:38.017Z,85.88
2022-09-11T08:02:39.389Z,83.56
2022-09-11T08:07:40.630Z,83.22
2022-09-11T08:12:41.970Z,82.95
2022-09-11T08:17:43.231Z,84.31
2022-09-11T08:22:44.466Z,82.54
2022-09-11T08:27:45.696Z,83.87
2022-09-11T08:32:46.943Z,83.67
2022-09-11T08:37:51.606Z,84.02
2022-09-11T08:42:55.797Z,82.73
2022-09-11T08:47:57.061Z,82.46
2022-09-11T08:52:58.300Z,82.09
2022-09-11T08:57:59.528Z,81.77
2022-09-11T09:03:02.514Z,81.66
2022-09-11T09:08:04.566Z,83.11
2022-09-11T09:13:05.809Z,81.21
2022-09-11T09:18:07.017Z,81.14
2022-09-11T09:23:08.233Z,80.90
2022-09-11T09:28:09.499Z,79.46
2022-09-11T09:33:13.313Z,81.26
2022-09-11T09:38:14.707Z,79.85
2022-09-11T09:43:15.957Z,79.27
2022-09-11T09:48:17.191Z,79.27
2022-09-11T09:53:18.518Z,78.69
2022-09-11T09:58:19.761Z,80.07
2022-09-11T10:03:21.038Z,77.87
2022-09-11T10:08:24.794Z,79.01
2022-09-11T10:13:26.109Z,76.78
2022-09-11T10:18:27.433Z,76.35
2022-09-11T10:23:29.619Z,76.23
2022-09-11T10:28:31.357Z,72.43
2022-09-11T10:33:32.805Z,72.72
2022-09-11T10:38:36.932Z,69.63
2022-09-11T10:43:40.574Z,71.90
2022-09-11T10:54:27.861Z,70.77
2022-09-11T10:59:29.107Z,70.96
2022-09-11T11:04:32.511Z,69.00
2022-09-11T11:09:33.835Z,68.05
2022-09-11T11:14:35.079Z,68.72
2022-09-11T11:19:36.327Z,69.52
2022-09-11T11:24:37.758Z,69.05
2022-09-11T11:29:51.078Z,69.32
2022-09-11T11:34:56.984Z,66.80
2022-09-11T11:39:58.344Z,66.46
2022-09-11T11:45:00.328Z,67.46
2022-09-11T11:50:01.839Z,65.56
2022-09-11T11:55:03.152Z,65.63
2022-09-11T12:00:05.086Z,63.73
2022-09-11T12:05:09.549Z,67.74
2022-09-11T12:10:10.761Z,67.14
2022-09-11T12:15:12.114Z,66.01
2022-09-11T12:20:13.503Z,66.36
2022-09-11T12:25:14.857Z,62.29
2022-09-11T12:30:16.453Z,63.66
2022-09-11T12:35:20.970Z,62.49
2022-09-11T12:40:22.986Z,63.84
2022-09-11T12:45:25.210Z,63.34
2022-09-11T12:50:26.519Z,59.57
2022-09-11T12:55:27.768Z,58.83
2022-09-11T13:00:29.113Z,57.82
2022-09-11T13:05:34.601Z,56.59
2022-09-11T13:10:36.753Z,56.66
2022-09-11T13:15:44.321Z,57.64
2022-09-11T13:20:45.638Z,58.41
2022-09-11T13:25:47.480Z,57.15
2022-09-11T13:30:48.761Z,55.28
2022-09-11T13:35:50.060Z,55.22
2022-09-11T13:40:54.085Z,51.99
2022-09-11T13:45:55.368Z,53.14
2022-09-11T13:50:58.479Z,57.85
2022-09-11T13:56:00.299Z,58.56
2022-09-11T14:01:01.586Z,58.36
2022-09-11T14:06:05.976Z,61.31
2022-09-11T14:11:11.182Z,61.11
2022-09-11T14:16:13.465Z,61.81
2022-09-11T14:21:15.183Z,61.01
2022-09-11T14:26:17.017Z,59.62
2022-09-11T14:31:21.176Z,60.55
2022-09-11T14:36:22.739Z,62.39
2022-09-11T14:41:23.943Z,59.00
2022-09-11T14:51:26.633Z,57.91
2022-09-11T14:56:28.027Z,59.46
2022-09-11T15:01:31.223Z,59.17
2022-09-11T15:06:32.529Z,58.74
2022-09-11T15:11:38.757Z,59.29
2022-09-11T15:16:40.627Z,59.97
2022-09-11T15:21:41.944Z,61.30
2022-09-11T15:26:43.271Z,58.29
2022-09-11T15:31:48.052Z,56.83
2022-09-11T15:36:50.918Z,55.56
2022-09-11T15:41:52.143Z,56.76
2022-09-11T15:46:53.416Z,58.99
2022-09-11T15:51:58.420Z,57.85
2022-09-11T15:56:59.829Z,56.78
2022-09-11T16:02:01.139Z,56.48
2022-09-11T16:07:02.514Z,56.76
2022-09-11T16:12:03.793Z,57.14
2022-09-11T16:17:05.788Z,58.42
2022-09-11T16:22:07.114Z,59.03
2022-09-11T16:27:08.465Z,59.86
2022-09-11T16:32:09.728Z,60.18
2022-09-11T16:37:12.458Z,59.94
2022-09-11T16:42:14.612Z,60.79
2022-09-11T16:47:16.367Z,60.71
2022-09-11T16:52:17.703Z,60.97
2022-09-11T16:57:19.572Z,63.42
2022-09-11T17:02:20.856Z,63.49
2022-09-11T17:07:23.772Z,62.53
2022-09-11T17:12:24.991Z,62.72
2022-09-11T17:17:26.243Z,62.58
2022-09-11T17:22:29.742Z,63.06
2022-09-11T17:27:31.321Z,62.85
2022-09-11T17:32:32.611Z,62.72
2022-09-11T17:37:33.855Z,63.38
2022-09-11T17:42:35.185Z,63.29
2022-09-11T17:47:36.995Z,63.62
2022-09-11T17:52:38.312Z,64.73
2022-09-11T17:57:40.740Z,64.26
2022-09-11T18:02:42.065Z,64.13
2022-09-11T18:07:43.328Z,63.13
2022-09-11T18:12:44.603Z,64.17
2022-09-11T18:17:47.702Z,65.24
2022-09-11T18:22:50.237Z,66.78
2022-09-11T18:27:51.492Z,68.09
2022-09-11T18:32:52.731Z,68.87
2022-09-11T18:37:54.064Z,69.40
2022-09-11T18:42:55.388Z,70.02
2022-09-11T18:47:56.735Z,70.53
2022-09-11T18:53:00.059Z,69.46
2022-09-11T18:58:01.499Z,70.67
2022-09-11T19:03:02.757Z,72.10
2022-09-11T19:08:04.094Z,71.93
2022-09-11T19:13:05.843Z,73.56
2022-09-11T19:18:07.370Z,72.60
2022-09-11T19:23:09.215Z,72.17
2022-09-11T19:28:11.826Z,72.48
2022-09-11T19:33:13.069Z,72.96
2022-09-11T19:38:14.378Z,72.66
2022-09-11T19:43:15.859Z,72.91
2022-09-11T19:48:17.847Z,72.79
2022-09-11T19:53:19.593Z,73.71
2022-09-11T19:58:23.994Z,73.25
2022-09-11T20:03:28.600Z,74.07
2022-09-11T20:08:30.271Z,74.38
2022-09-11T20:13:31.724Z,74.09
2022-09-11T20:29:41.703Z,74.47
2022-09-11T20:34:42.971Z,74.45
2022-09-11T20:39:44.240Z,75.09
2022-09-11T20:44:45.507Z,74.51
2022-09-11T20:49:50.572Z,73.95
2022-09-11T20:54:51.895Z,73.82
2022-09-11T20:59:53.801Z,74.30
2022-09-11T21:04:55.064Z,74.56
2022-09-11T21:10:02.503Z,74.31
2022-09-11T21:15:03.784Z,73.60
2022-09-11T21:20:05.111Z,73.30
2022-09-11T21:25:08.931Z,73.36
2022-09-11T21:30:10.291Z,74.36
2022-09-11T21:35:11.604Z,74.63
2022-09-11T21:40:13.686Z,75.72
2022-09-11T21:45:14.933Z,74.96
2022-09-11T21:50:16.390Z,74.33
2022-09-11T21:55:17.702Z,74.72
2022-09-11T22:00:18.953Z,75.72
2022-09-11T22:05:20.395Z,75.76
2022-09-11T22:10:23.435Z,76.27
2022-09-11T22:15:24.718Z,76.39
2022-09-11T22:20:26.369Z,76.62
2022-09-11T22:25:27.711Z,77.66
2022-09-11T22:30:30.154Z,77.43
2022-09-11T22:35:31.399Z,76.95
2022-09-11T22:40:32.760Z,77.20
2022-09-11T22:45:34.051Z,76.73
2022-09-11T22:50:35.349Z,76.97
2022-09-11T22:55:36.583Z,76.96
2022-09-11T23:00:37.880Z,77.14
2022-09-11T23:05:58.230Z,77.11
2022-09-11T23:11:00.350Z,77.04
2022-09-11T23:16:01.650Z,77.07
2022-09-11T23:21:02.935Z,77.81
2022-09-11T23:26:04.293Z,77.63
2022-09-11T23:31:05.542Z,77.38
2022-09-11T23:36:06.792Z,77.59
2022-09-11T23:41:08.042Z,77.78
2022-09-11T23:46:09.277Z,79.16
2022-09-11T23:51:10.588Z,78.90
2022-09-11T23:56:11.879Z,78.73
